sensor_id;sensor_type;location;lat;lon;timestamp;pressure;altitude;pressure_sealevel;temperature;humidity
35806;BME280;21925;44.608;11.580;2023-02-19T00:01:35;102619.50;;;9.24;80.22
35806;BME280;21925;44.608;11.580;2023-02-19T00:04:07;102613.81;;;9.21;80.13
35806;BME280;21925;44.608;11.580;2023-02-19T00:06:34;102587.03;;;9.18;79.84
35806;BME280;21925;44.608;11.580;2023-02-19T00:09:00;102592.88;;;9.11;80.06
35806;BME280;21925;44.608;11.580;2023-02-19T00:11:29;102614.38;;;9.41;77.97
35806;BME280;21925;44.608;11.580;2023-02-19T00:13:57;102603.31;;;9.28;77.90
35806;BME280;21925;44.608;11.580;2023-02-19T00:18:50;102604.56;;;8.93;79.24
35806;BME280;21925;44.608;11.580;2023-02-19T00:21:17;102603.25;;;8.91;80.68
35806;BME280;21925;44.608;11.580;2023-02-19T00:23:43;102599.09;;;8.93;79.62
35806;BME280;21925;44.608;11.580;2023-02-19T00:26:12;102597.28;;;9.07;78.75
35806;BME280;21925;44.608;11.580;2023-02-19T00:28:39;102589.97;;;8.79;79.42
35806;BME280;21925;44.608;11.580;2023-02-19T00:33:37;102599.56;;;8.77;79.20
35806;BME280;21925;44.608;11.580;2023-02-19T00:36:04;102568.06;;;8.56;79.81
35806;BME280;21925;44.608;11.580;2023-02-19T00:38:30;102580.66;;;7.52;83.35
35806;BME280;21925;44.608;11.580;2023-02-19T00:40:57;102607.75;;;7.87;85.61
35806;BME280;21925;44.608;11.580;2023-02-19T00:43:24;102598.28;;;8.08;85.14
35806;BME280;21925;44.608;11.580;2023-02-19T00:45:49;102582.88;;;7.88;83.67
35806;BME280;21925;44.608;11.580;2023-02-19T00:48:15;102589.00;;;8.09;82.80
35806;BME280;21925;44.608;11.580;2023-02-19T00:50:40;102589.53;;;8.11;82.80
35806;BME280;21925;44.608;11.580;2023-02-19T00:53:06;102579.13;;;8.13;81.99
35806;BME280;21925;44.608;11.580;2023-02-19T00:55:31;102570.72;;;8.04;81.81
35806;BME280;21925;44.608;11.580;2023-02-19T00:57:57;102569.34;;;8.07;81.34
35806;BME280;21925;44.608;11.580;2023-02-19T01:00:22;102573.50;;;8.33;79.77
35806;BME280;21925;44.608;11.580;2023-02-19T01:02:48;102586.69;;;8.54;78.20
35806;BME280;21925;44.608;11.580;2023-02-19T01:05:13;102575.59;;;8.41;77.30
35806;BME280;21925;44.608;11.580;2023-02-19T01:07:39;102563.72;;;8.27;77.04
35806;BME280;21925;44.608;11.580;2023-02-19T01:10:06;102579.47;;;8.40;77.44
35806;BME280;21925;44.608;11.580;2023-02-19T01:12:32;102580.03;;;8.37;77.30
35806;BME280;21925;44.608;11.580;2023-02-19T01:14:57;102580.38;;;7.97;78.17
35806;BME280;21925;44.608;11.580;2023-02-19T01:17:23;102577.38;;;8.27;77.21
35806;BME280;21925;44.608;11.580;2023-02-19T01:19:49;102541.22;;;8.06;76.46
35806;BME280;21925;44.608;11.580;2023-02-19T01:22:15;102566.56;;;8.12;76.65
35806;BME280;21925;44.608;11.580;2023-02-19T01:24:41;102551.34;;;8.01;77.28
35806;BME280;21925;44.608;11.580;2023-02-19T01:27:06;102558.13;;;8.08;76.81
35806;BME280;21925;44.608;11.580;2023-02-19T01:29:32;102540.50;;;7.96;76.27
35806;BME280;21925;44.608;11.580;2023-02-19T01:31:58;102563.84;;;8.12;76.15
35806;BME280;21925;44.608;11.580;2023-02-19T01:34:23;102534.06;;;7.82;76.75
35806;BME280;21925;44.608;11.580;2023-02-19T01:36:50;102559.06;;;7.94;76.54
35806;BME280;21925;44.608;11.580;2023-02-19T01:39:16;102560.16;;;7.98;76.41
35806;BME280;21925;44.608;11.580;2023-02-19T01:41:41;102548.16;;;7.94;76.22
35806;BME280;21925;44.608;11.580;2023-02-19T01:46:38;102553.38;;;7.52;78.00
35806;BME280;21925;44.608;11.580;2023-02-19T01:49:16;102553.19;;;7.77;77.27
35806;BME280;21925;44.608;11.580;2023-02-19T01:51:52;102547.31;;;6.59;81.43
35806;BME280;21925;44.608;11.580;2023-02-19T01:54:21;102546.75;;;6.57;86.20
35806;BME280;21925;44.608;11.580;2023-02-19T01:56:50;102558.56;;;7.06;82.90
35806;BME280;21925;44.608;11.580;2023-02-19T01:59:17;102554.19;;;7.10;82.08
35806;BME280;21925;44.608;11.580;2023-02-19T02:01:43;102536.31;;;6.84;81.69
35806;BME280;21925;44.608;11.580;2023-02-19T02:04:11;102550.47;;;6.81;83.76
35806;BME280;21925;44.608;11.580;2023-02-19T02:06:48;102546.47;;;6.63;85.27
35806;BME280;21925;44.608;11.580;2023-02-19T02:09:15;102528.47;;;6.62;85.31
35806;BME280;21925;44.608;11.580;2023-02-19T02:12:02;102545.44;;;7.12;81.74
35806;BME280;21925;44.608;11.580;2023-02-19T02:14:29;102539.97;;;7.12;79.97
35806;BME280;21925;44.608;11.580;2023-02-19T02:25:39;102543.31;;;7.00;78.45
35806;BME280;21925;44.608;11.580;2023-02-19T02:34:00;102531.78;;;7.12;77.87
35806;BME280;21925;44.608;11.580;2023-02-19T02:36:36;102531.38;;;6.91;78.75
35806;BME280;21925;44.608;11.580;2023-02-19T02:39:07;102530.59;;;6.80;78.93
35806;BME280;21925;44.608;11.580;2023-02-19T02:41:41;102525.44;;;6.74;78.79
35806;BME280;21925;44.608;11.580;2023-02-19T02:44:08;102509.13;;;6.69;78.77
35806;BME280;21925;44.608;11.580;2023-02-19T02:46:37;102509.13;;;6.64;78.06
35806;BME280;21925;44.608;11.580;2023-02-19T02:49:09;102507.59;;;6.33;79.30
35806;BME280;21925;44.608;11.580;2023-02-19T02:51:40;102506.56;;;5.84;81.51
35806;BME280;21925;44.608;11.580;2023-02-19T02:54:18;102501.09;;;5.69;81.94
35806;BME280;21925;44.608;11.580;2023-02-19T02:57:07;102521.25;;;5.73;83.24
35806;BME280;21925;44.608;11.580;2023-02-19T02:59:43;102488.63;;;5.88;83.13
35806;BME280;21925;44.608;11.580;2023-02-19T03:02:22;102503.59;;;6.01;83.68
35806;BME280;21925;44.608;11.580;2023-02-19T03:05:03;102500.50;;;6.32;81.62
35806;BME280;21925;44.608;11.580;2023-02-19T03:10:27;102488.94;;;6.65;77.26
35806;BME280;21925;44.608;11.580;2023-02-19T03:12:59;102483.78;;;6.58;76.55
35806;BME280;21925;44.608;11.580;2023-02-19T03:15:49;102483.38;;;6.12;77.62
35806;BME280;21925;44.608;11.580;2023-02-19T03:18:37;102494.56;;;5.70;83.15
35806;BME280;21925;44.608;11.580;2023-02-19T03:21:24;102499.97;;;5.26;87.02
35806;BME280;21925;44.608;11.580;2023-02-19T03:23:52;102494.56;;;5.36;88.41
35806;BME280;21925;44.608;11.580;2023-02-19T03:26:37;102496.22;;;5.86;84.67
35806;BME280;21925;44.608;11.580;2023-02-19T03:29:06;102496.22;;;5.96;83.73
35806;BME280;21925;44.608;11.580;2023-02-19T03:31:51;102494.53;;;6.25;80.36
35806;BME280;21925;44.608;11.580;2023-02-19T03:34:23;102493.41;;;6.36;78.54
35806;BME280;21925;44.608;11.580;2023-02-19T03:36:59;102487.41;;;6.39;77.29
35806;BME280;21925;44.608;11.580;2023-02-19T03:39:26;102465.41;;;6.21;77.37
35806;BME280;21925;44.608;11.580;2023-02-19T03:41:59;102496.75;;;6.08;80.22
35806;BME280;21925;44.608;11.580;2023-02-19T03:47:25;102483.69;;;6.05;80.69
35806;BME280;21925;44.608;11.580;2023-02-19T03:58:20;102480.75;;;5.77;84.21
35806;BME280;21925;44.608;11.580;2023-02-19T04:01:08;102479.34;;;5.69;83.09
35806;BME280;21925;44.608;11.580;2023-02-19T04:03:40;102495.66;;;5.74;84.13
35806;BME280;21925;44.608;11.580;2023-02-19T04:06:32;102492.69;;;5.81;82.85
35806;BME280;21925;44.608;11.580;2023-02-19T04:09:03;102490.78;;;5.91;82.22
35806;BME280;21925;44.608;11.580;2023-02-19T04:11:31;102492.69;;;5.76;83.83
35806;BME280;21925;44.608;11.580;2023-02-19T04:14:07;102478.25;;;6.05;80.03
35806;BME280;21925;44.608;11.580;2023-02-19T04:16:37;102490.47;;;6.23;78.08
35806;BME280;21925;44.608;11.580;2023-02-19T04:19:11;102478.19;;;6.25;76.80
35806;BME280;21925;44.608;11.580;2023-02-19T04:21:38;102491.78;;;6.30;76.52
35806;BME280;21925;44.608;11.580;2023-02-19T04:24:22;102492.31;;;6.32;76.17
35806;BME280;21925;44.608;11.580;2023-02-19T04:26:49;102475.72;;;6.29;75.65
35806;BME280;21925;44.608;11.580;2023-02-19T04:29:15;102486.16;;;5.97;79.87
35806;BME280;21925;44.608;11.580;2023-02-19T04:31:40;102492.41;;;5.67;81.56
35806;BME280;21925;44.608;11.580;2023-02-19T04:34:06;102486.88;;;4.98;85.49
35806;BME280;21925;44.608;11.580;2023-02-19T04:36:32;102492.75;;;4.70;90.59
35806;BME280;21925;44.608;11.580;2023-02-19T04:38:58;102481.13;;;4.89;88.89
35806;BME280;21925;44.608;11.580;2023-02-19T04:41:24;102485.84;;;5.44;86.07
35806;BME280;21925;44.608;11.580;2023-02-19T04:43:49;102478.53;;;5.49;84.83
35806;BME280;21925;44.608;11.580;2023-02-19T04:46:15;102474.44;;;5.37;87.00
35806;BME280;21925;44.608;11.580;2023-02-19T04:48:41;102462.47;;;5.33;85.06
35806;BME280;21925;44.608;11.580;2023-02-19T04:51:08;102479.06;;;5.56;84.83
35806;BME280;21925;44.608;11.580;2023-02-19T04:53:34;102489.84;;;4.86;87.02
35806;BME280;21925;44.608;11.580;2023-02-19T04:56:12;102485.25;;;5.02;88.14
35806;BME280;21925;44.608;11.580;2023-02-19T04:58:39;102476.88;;;5.18;85.73
35806;BME280;21925;44.608;11.580;2023-02-19T05:01:05;102484.75;;;5.35;85.89
35806;BME280;21925;44.608;11.580;2023-02-19T05:03:31;102484.75;;;5.35;86.23
35806;BME280;21925;44.608;11.580;2023-02-19T05:06:03;102481.97;;;4.90;86.89
35806;BME280;21925;44.608;11.580;2023-02-19T05:08:29;102467.91;;;5.33;86.41
35806;BME280;21925;44.608;11.580;2023-02-19T05:10:59;102478.25;;;5.55;81.70
35806;BME280;21925;44.608;11.580;2023-02-19T05:13:26;102470.34;;;5.54;81.35
35806;BME280;21925;44.608;11.580;2023-02-19T05:16:21;102488.28;;;5.25;83.18
35806;BME280;21925;44.608;11.580;2023-02-19T05:18:46;102477.09;;;4.97;86.79
35806;BME280;21925;44.608;11.580;2023-02-19T05:21:12;102477.16;;;5.32;83.75
35806;BME280;21925;44.608;11.580;2023-02-19T05:23:38;102468.44;;;5.49;80.93
35806;BME280;21925;44.608;11.580;2023-02-19T05:26:08;102476.06;;;5.62;79.50
35806;BME280;21925;44.608;11.580;2023-02-19T05:28:34;102477.69;;;5.68;77.97
35806;BME280;21925;44.608;11.580;2023-02-19T05:31:06;102467.38;;;5.55;78.64
35806;BME280;21925;44.608;11.580;2023-02-19T05:33:33;102476.06;;;5.43;81.55
35806;BME280;21925;44.608;11.580;2023-02-19T05:36:04;102478.81;;;5.48;83.01
35806;BME280;21925;44.608;11.580;2023-02-19T05:38:30;102467.91;;;5.62;78.98
35806;BME280;21925;44.608;11.580;2023-02-19T05:40:55;102466.81;;;5.68;77.12
35806;BME280;21925;44.608;11.580;2023-02-19T05:43:30;102470.88;;;5.71;76.36
35806;BME280;21925;44.608;11.580;2023-02-19T05:45:57;102463.03;;;5.84;75.55
35806;BME280;21925;44.608;11.580;2023-02-19T05:48:23;102465.75;;;5.84;74.92
35806;BME280;21925;44.608;11.580;2023-02-19T05:50:48;102462.47;;;5.82;75.13
35806;BME280;21925;44.608;11.580;2023-02-19T05:53:14;102460.56;;;5.78;74.80
35806;BME280;21925;44.608;11.580;2023-02-19T05:55:39;102445.03;;;5.68;74.80
35806;BME280;21925;44.608;11.580;2023-02-19T05:58:05;102436.34;;;5.61;75.18
35806;BME280;21925;44.608;11.580;2023-02-19T06:00:32;102464.09;;;5.83;74.95
35806;BME280;21925;44.608;11.580;2023-02-19T06:02:57;102468.47;;;5.79;74.72
35806;BME280;21925;44.608;11.580;2023-02-19T06:05:23;102470.91;;;5.81;75.57
35806;BME280;21925;44.608;11.580;2023-02-19T06:07:48;102429.53;;;5.54;74.78
35806;BME280;21925;44.608;11.580;2023-02-19T06:10:15;102467.63;;;5.74;75.35
35806;BME280;21925;44.608;11.580;2023-02-19T06:12:40;102458.66;;;5.53;77.74
35806;BME280;21925;44.608;11.580;2023-02-19T06:15:06;102452.41;;;5.28;83.07
35806;BME280;21925;44.608;11.580;2023-02-19T06:17:33;102457.31;;;5.41;80.15
35806;BME280;21925;44.608;11.580;2023-02-19T06:19:59;102460.56;;;5.38;78.43
35806;BME280;21925;44.608;11.580;2023-02-19T06:22:25;102463.84;;;5.50;78.08
35806;BME280;21925;44.608;11.580;2023-02-19T06:24:51;102450.50;;;5.58;76.94
35806;BME280;21925;44.608;11.580;2023-02-19T06:27:17;102468.44;;;5.69;76.58
35806;BME280;21925;44.608;11.580;2023-02-19T06:29:42;102465.75;;;5.79;76.54
35806;BME280;21925;44.608;11.580;2023-02-19T06:32:08;102465.44;;;5.71;76.69
35806;BME280;21925;44.608;11.580;2023-02-19T06:34:34;102465.22;;;5.77;78.14
35806;BME280;21925;44.608;11.580;2023-02-19T06:36:59;102448.06;;;5.67;76.45
35806;BME280;21925;44.608;11.580;2023-02-19T06:39:26;102479.91;;;5.86;74.97
35806;BME280;21925;44.608;11.580;2023-02-19T06:44:57;102472.50;;;6.17;74.86
35806;BME280;21925;44.608;11.580;2023-02-19T06:47:22;102452.88;;;6.20;72.90
35806;BME280;21925;44.608;11.580;2023-02-19T06:49:48;102473.25;;;6.32;72.38
35806;BME280;21925;44.608;11.580;2023-02-19T06:53:19;102472.25;;;6.13;73.57
35806;BME280;21925;44.608;11.580;2023-02-19T06:55:58;102458.06;;;6.11;72.79
35806;BME280;21925;44.608;11.580;2023-02-19T06:58:24;102470.31;;;6.24;72.49
35806;BME280;21925;44.608;11.580;2023-02-19T07:00:50;102467.56;;;6.33;72.20
35806;BME280;21925;44.608;11.580;2023-02-19T07:03:16;102467.25;;;6.30;71.82
35806;BME280;21925;44.608;11.580;2023-02-19T07:05:41;102469.47;;;6.28;71.96
35806;BME280;21925;44.608;11.580;2023-02-19T07:08:08;102451.47;;;6.32;71.96
35806;BME280;21925;44.608;11.580;2023-02-19T07:10:34;102458.25;;;6.34;71.94
35806;BME280;21925;44.608;11.580;2023-02-19T07:13:00;102462.88;;;6.44;72.00
35806;BME280;21925;44.608;11.580;2023-02-19T07:15:25;102468.56;;;6.57;73.49
35806;BME280;21925;44.608;11.580;2023-02-19T07:17:51;102462.06;;;6.43;77.24
35806;BME280;21925;44.608;11.580;2023-02-19T07:20:17;102463.84;;;6.73;73.93
35806;BME280;21925;44.608;11.580;2023-02-19T07:22:42;102456.63;;;6.97;74.00
35806;BME280;21925;44.608;11.580;2023-02-19T07:25:08;102449.41;;;7.15;75.52
35806;BME280;21925;44.608;11.580;2023-02-19T07:27:33;102444.41;;;7.27;80.24
35806;BME280;21925;44.608;11.580;2023-02-19T07:29:59;102438.91;;;7.32;83.79
35806;BME280;21925;44.608;11.580;2023-02-19T07:32:24;102461.84;;;7.31;88.26
35806;BME280;21925;44.608;11.580;2023-02-19T07:34:50;102459.66;;;7.33;92.33
35806;BME280;21925;44.608;11.580;2023-02-19T07:37:16;102467.47;;;7.45;93.52
35806;BME280;21925;44.608;11.580;2023-02-19T07:39:41;102459.25;;;7.50;95.68
35806;BME280;21925;44.608;11.580;2023-02-19T07:42:07;102460.56;;;7.57;96.02
35806;BME280;21925;44.608;11.580;2023-02-19T07:44:32;102457.59;;;7.54;98.01
35806;BME280;21925;44.608;11.580;2023-02-19T07:46:58;102441.38;;;7.62;98.88
35806;BME280;21925;44.608;11.580;2023-02-19T07:49:24;102433.16;;;7.67;99.80
35806;BME280;21925;44.608;11.580;2023-02-19T07:51:49;102450.03;;;7.74;100.00
35806;BME280;21925;44.608;11.580;2023-02-19T07:54:15;102452.84;;;7.92;100.00
35806;BME280;21925;44.608;11.580;2023-02-19T07:56:40;102447.56;;;8.29;100.00
35806;BME280;21925;44.608;11.580;2023-02-19T07:59:06;102440.66;;;8.08;100.00
35806;BME280;21925;44.608;11.580;2023-02-19T08:01:32;102452.91;;;8.39;100.00
35806;BME280;21925;44.608;11.580;2023-02-19T08:04:16;102464.88;;;8.67;100.00
35806;BME280;21925;44.608;11.580;2023-02-19T08:11:27;102453.38;;;9.43;100.00
35806;BME280;21925;44.608;11.580;2023-02-19T08:14:12;102442.13;;;9.90;100.00
35806;BME280;21925;44.608;11.580;2023-02-19T08:16:37;102459.47;;;10.17;97.24
35806;BME280;21925;44.608;11.580;2023-02-19T08:19:03;102454.09;;;10.39;96.48
35806;BME280;21925;44.608;11.580;2023-02-19T08:21:28;102456.22;;;10.69;93.57
35806;BME280;21925;44.608;11.580;2023-02-19T08:23:54;102456.22;;;10.82;92.66
35806;BME280;21925;44.608;11.580;2023-02-19T08:26:19;102454.28;;;10.83;91.46
35806;BME280;21925;44.608;11.580;2023-02-19T08:28:45;102469.16;;;11.04;91.63
35806;BME280;21925;44.608;11.580;2023-02-19T08:31:12;102448.38;;;11.24;91.34
35806;BME280;21925;44.608;11.580;2023-02-19T08:33:38;102461.50;;;11.49;90.78
35806;BME280;21925;44.608;11.580;2023-02-19T08:36:05;102466.03;;;11.32;91.51
35806;BME280;21925;44.608;11.580;2023-02-19T08:38:33;102460.03;;;11.95;91.47
35806;BME280;21925;44.608;11.580;2023-02-19T08:41:10;102445.56;;;12.42;87.93
35806;BME280;21925;44.608;11.580;2023-02-19T08:43:37;102436.97;;;12.35;87.52
35806;BME280;21925;44.608;11.580;2023-02-19T08:46:03;102449.16;;;12.51;88.46
35806;BME280;21925;44.608;11.580;2023-02-19T08:48:29;102440.72;;;12.48;87.97
35806;BME280;21925;44.608;11.580;2023-02-19T08:50:56;102451.88;;;12.98;87.35
35806;BME280;21925;44.608;11.580;2023-02-19T08:53:23;102449.28;;;13.02;88.10
35806;BME280;21925;44.608;11.580;2023-02-19T08:55:48;102442.66;;;13.03;88.41
35806;BME280;21925;44.608;11.580;2023-02-19T08:58:14;102457.88;;;13.26;89.15
35806;BME280;21925;44.608;11.580;2023-02-19T09:00:40;102464.69;;;13.20;88.51
35806;BME280;21925;44.608;11.580;2023-02-19T09:03:05;102448.97;;;13.54;89.54
35806;BME280;21925;44.608;11.580;2023-02-19T09:05:31;102457.72;;;13.64;88.78
35806;BME280;21925;44.608;11.580;2023-02-19T09:07:57;102445.69;;;13.77;88.76
35806;BME280;21925;44.608;11.580;2023-02-19T09:10:22;102442.88;;;14.11;87.02
35806;BME280;21925;44.608;11.580;2023-02-19T09:12:48;102427.56;;;14.22;84.97
35806;BME280;21925;44.608;11.580;2023-02-19T09:15:13;102445.41;;;14.62;83.19
35806;BME280;21925;44.608;11.580;2023-02-19T09:17:39;102443.38;;;15.00;85.49
35806;BME280;21925;44.608;11.580;2023-02-19T09:20:05;102447.50;;;14.94;84.18
35806;BME280;21925;44.608;11.580;2023-02-19T09:22:30;102436.00;;;15.32;82.60
35806;BME280;21925;44.608;11.580;2023-02-19T09:24:56;102445.09;;;15.86;80.77
35806;BME280;21925;44.608;11.580;2023-02-19T09:27:21;102436.97;;;15.69;78.65
35806;BME280;21925;44.608;11.580;2023-02-19T09:29:47;102449.25;;;16.36;77.94
35806;BME280;21925;44.608;11.580;2023-02-19T09:32:13;102439.09;;;16.87;73.91
35806;BME280;21925;44.608;11.580;2023-02-19T09:34:38;102441.50;;;17.40;72.93
35806;BME280;21925;44.608;11.580;2023-02-19T09:37:05;102453.06;;;16.67;76.29
35806;BME280;21925;44.608;11.580;2023-02-19T09:39:31;102457.56;;;16.95;75.55
35806;BME280;21925;44.608;11.580;2023-02-19T09:42:03;102441.81;;;16.99;74.40
35806;BME280;21925;44.608;11.580;2023-02-19T09:44:38;102434.63;;;17.61;73.78
35806;BME280;21925;44.608;11.580;2023-02-19T09:47:07;102439.75;;;17.75;71.14
35806;BME280;21925;44.608;11.580;2023-02-19T09:49:41;102440.91;;;18.17;70.82
35806;BME280;21925;44.608;11.580;2023-02-19T09:55:14;102435.47;;;17.50;74.52
35806;BME280;21925;44.608;11.580;2023-02-19T09:57:41;102437.19;;;17.55;74.14
35806;BME280;21925;44.608;11.580;2023-02-19T10:00:18;102433.00;;;17.33;76.85
35806;BME280;21925;44.608;11.580;2023-02-19T10:02:45;102423.78;;;17.05;75.59
35806;BME280;21925;44.608;11.580;2023-02-19T10:05:12;102433.56;;;17.66;75.10
35806;BME280;21925;44.608;11.580;2023-02-19T10:07:42;102431.34;;;17.87;73.62
35806;BME280;21925;44.608;11.580;2023-02-19T10:12:39;102411.34;;;18.24;71.50
35806;BME280;21925;44.608;11.580;2023-02-19T10:15:30;102405.94;;;18.62;70.52
35806;BME280;21925;44.608;11.580;2023-02-19T10:17:58;102406.88;;;18.35;71.27
35806;BME280;21925;44.608;11.580;2023-02-19T10:20:25;102409.88;;;19.11;69.84
35806;BME280;21925;44.608;11.580;2023-02-19T10:23:01;102386.41;;;19.27;66.05
35806;BME280;21925;44.608;11.580;2023-02-19T10:25:28;102392.03;;;19.49;65.68
35806;BME280;21925;44.608;11.580;2023-02-19T10:27:57;102401.59;;;18.80;66.59
35806;BME280;21925;44.608;11.580;2023-02-19T10:30:27;102397.84;;;19.22;67.53
35806;BME280;21925;44.608;11.580;2023-02-19T10:33:04;102392.56;;;18.67;67.67
35806;BME280;21925;44.608;11.580;2023-02-19T10:35:35;102392.50;;;18.64;68.38
35806;BME280;21925;44.608;11.580;2023-02-19T10:38:02;102393.00;;;19.04;66.64
35806;BME280;21925;44.608;11.580;2023-02-19T10:40:31;102393.91;;;18.24;69.49
35806;BME280;21925;44.608;11.580;2023-02-19T10:42:59;102410.00;;;18.34;69.58
35806;BME280;21925;44.608;11.580;2023-02-19T10:45:37;102389.47;;;19.41;69.57
35806;BME280;21925;44.608;11.580;2023-02-19T10:48:04;102389.84;;;18.86;67.28
35806;BME280;21925;44.608;11.580;2023-02-19T10:50:34;102385.34;;;18.97;66.12
35806;BME280;21925;44.608;11.580;2023-02-19T10:53:04;102379.94;;;19.04;68.28
35806;BME280;21925;44.608;11.580;2023-02-19T10:55:32;102377.81;;;19.35;66.19
35806;BME280;21925;44.608;11.580;2023-02-19T10:58:26;102367.88;;;19.76;63.33
35806;BME280;21925;44.608;11.580;2023-02-19T11:01:11;102370.06;;;19.86;64.34
35806;BME280;21925;44.608;11.580;2023-02-19T11:03:37;102370.16;;;18.95;66.12
35806;BME280;21925;44.608;11.580;2023-02-19T11:06:05;102364.69;;;18.98;66.56
35806;BME280;21925;44.608;11.580;2023-02-19T11:08:56;102358.59;;;19.91;66.18
35806;BME280;21925;44.608;11.580;2023-02-19T11:13:55;102362.66;;;19.33;65.54
35806;BME280;21925;44.608;11.580;2023-02-19T11:16:37;102352.78;;;19.35;64.94
35806;BME280;21925;44.608;11.580;2023-02-19T11:19:04;102344.63;;;19.23;65.91
35806;BME280;21925;44.608;11.580;2023-02-19T11:21:30;102347.72;;;19.60;65.00
35806;BME280;21925;44.608;11.580;2023-02-19T11:23:59;102336.31;;;19.46;64.97
35806;BME280;21925;44.608;11.580;2023-02-19T11:26:31;102336.81;;;19.74;64.53
35806;BME280;21925;44.608;11.580;2023-02-19T11:29:01;102332.00;;;19.71;65.34
35806;BME280;21925;44.608;11.580;2023-02-19T11:31:35;102335.22;;;19.73;65.36
35806;BME280;21925;44.608;11.580;2023-02-19T11:36:41;102312.72;;;20.03;64.60
35806;BME280;21925;44.608;11.580;2023-02-19T11:39:27;102327.69;;;20.18;63.72
35806;BME280;21925;44.608;11.580;2023-02-19T12:00:27;102297.00;;;19.70;64.68
35806;BME280;21925;44.608;11.580;2023-02-19T12:23:53;102272.50;;;19.56;64.30
35806;BME280;21925;44.608;11.580;2023-02-19T12:31:45;102262.13;;;18.93;65.86
35806;BME280;21925;44.608;11.580;2023-02-19T12:45:16;102260.06;;;19.73;64.58
35806;BME280;21925;44.608;11.580;2023-02-19T12:47:58;102251.09;;;20.05;64.37
35806;BME280;21925;44.608;11.580;2023-02-19T12:50:26;102257.00;;;20.03;64.30
35806;BME280;21925;44.608;11.580;2023-02-19T12:52:58;102259.00;;;19.81;63.10
35806;BME280;21925;44.608;11.580;2023-02-19T12:55:35;102256.81;;;19.93;64.93
35806;BME280;21925;44.608;11.580;2023-02-19T12:58:04;102257.84;;;19.82;63.67
35806;BME280;21925;44.608;11.580;2023-02-19T13:00:40;102261.69;;;19.74;64.74
35806;BME280;21925;44.608;11.580;2023-02-19T13:03:28;102260.94;;;19.32;63.62
35806;BME280;21925;44.608;11.580;2023-02-19T13:11:30;102242.41;;;19.88;63.25
35806;BME280;21925;44.608;11.580;2023-02-19T13:16:51;102225.88;;;19.50;65.51
35806;BME280;21925;44.608;11.580;2023-02-19T13:19:18;102239.56;;;20.06;63.87
35806;BME280;21925;44.608;11.580;2023-02-19T13:21:46;102224.22;;;19.94;63.98
35806;BME280;21925;44.608;11.580;2023-02-19T13:24:36;102227.56;;;20.58;64.55
35806;BME280;21925;44.608;11.580;2023-02-19T13:27:34;102226.34;;;20.85;62.58
35806;BME280;21925;44.608;11.580;2023-02-19T13:30:21;102196.84;;;21.20;64.40
35806;BME280;21925;44.608;11.580;2023-02-19T13:38:40;102215.94;;;20.82;65.20
35806;BME280;21925;44.608;11.580;2023-02-19T13:41:17;102210.09;;;21.30;63.36
35806;BME280;21925;44.608;11.580;2023-02-19T13:43:43;102203.69;;;21.29;62.26
35806;BME280;21925;44.608;11.580;2023-02-19T13:46:13;102196.75;;;21.53;61.72
35806;BME280;21925;44.608;11.580;2023-02-19T13:48:41;102197.75;;;20.91;60.25
35806;BME280;21925;44.608;11.580;2023-02-19T13:59:37;102196.81;;;19.70;63.55
35806;BME280;21925;44.608;11.580;2023-02-19T14:04:45;102193.16;;;20.43;62.48
35806;BME280;21925;44.608;11.580;2023-02-19T14:14:45;102198.13;;;20.02;64.31
35806;BME280;21925;44.608;11.580;2023-02-19T14:17:43;102187.19;;;20.15;65.83
35806;BME280;21925;44.608;11.580;2023-02-19T14:28:03;102183.34;;;20.56;63.50
35806;BME280;21925;44.608;11.580;2023-02-19T14:30:33;102182.53;;;20.88;62.13
35806;BME280;21925;44.608;11.580;2023-02-19T14:33:00;102186.63;;;20.94;60.51
35806;BME280;21925;44.608;11.580;2023-02-19T14:35:35;102174.94;;;21.22;62.65
35806;BME280;21925;44.608;11.580;2023-02-19T14:38:02;102175.13;;;21.03;62.32
35806;BME280;21925;44.608;11.580;2023-02-19T14:40:39;102169.34;;;21.22;62.31
35806;BME280;21925;44.608;11.580;2023-02-19T14:43:11;102159.28;;;20.74;60.79
35806;BME280;21925;44.608;11.580;2023-02-19T14:45:44;102179.53;;;20.38;63.05
35806;BME280;21925;44.608;11.580;2023-02-19T14:48:17;102178.59;;;20.27;63.36
35806;BME280;21925;44.608;11.580;2023-02-19T14:50:48;102154.69;;;20.23;62.05
35806;BME280;21925;44.608;11.580;2023-02-19T14:53:15;102169.41;;;20.56;61.75
35806;BME280;21925;44.608;11.580;2023-02-19T14:55:42;102179.09;;;20.36;61.80
35806;BME280;21925;44.608;11.580;2023-02-19T14:58:22;102178.84;;;20.45;62.35
35806;BME280;21925;44.608;11.580;2023-02-19T15:00:49;102164.34;;;20.65;62.34
35806;BME280;21925;44.608;11.580;2023-02-19T15:03:30;102168.25;;;20.57;61.16
35806;BME280;21925;44.608;11.580;2023-02-19T15:05:59;102165.78;;;20.85;61.79
35806;BME280;21925;44.608;11.580;2023-02-19T15:08:31;102162.56;;;21.19;60.58
35806;BME280;21925;44.608;11.580;2023-02-19T15:11:00;102155.13;;;21.37;60.20
35806;BME280;21925;44.608;11.580;2023-02-19T15:13:27;102157.09;;;21.33;59.53
35806;BME280;21925;44.608;11.580;2023-02-19T15:15:54;102155.28;;;21.08;59.49
35806;BME280;21925;44.608;11.580;2023-02-19T15:18:23;102165.94;;;20.99;59.75
35806;BME280;21925;44.608;11.580;2023-02-19T15:20:50;102170.28;;;20.64;60.57
35806;BME280;21925;44.608;11.580;2023-02-19T15:23:21;102183.31;;;20.23;61.79
35806;BME280;21925;44.608;11.580;2023-02-19T15:25:49;102159.25;;;20.08;62.94
35806;BME280;21925;44.608;11.580;2023-02-19T15:31:13;102176.84;;;20.45;61.50
35806;BME280;21925;44.608;11.580;2023-02-19T15:33:47;102178.28;;;20.65;61.81